Time;durP1;ratioP1;P1;durP2;ratioP2;P2;SDS_P1;SDS_P2;PMS_P1;PMS_P2;Temp;Humidity;BMP_temperature;BMP_pressure;BME280_temperature;BME280_humidity;BME280_pressure;Samples;Min_cycle;Max_cycle;Signal;HPM_P1;HPM_P2
2022/02/20 00:02:11;;;;;;;5.88;1.60;;;;;;;2.99;67.84;96269.63;4834771;29;20061;-82
2022/02/20 00:04:42;;;;;;;7.47;1.90;;;;;;;3.03;67.81;96270.69;4835846;29;20076;-81
2022/02/20 00:07:09;;;;;;;6.10;1.80;;;;;;;3.06;67.12;96270.13;4819489;29;20062;-81
2022/02/20 00:09:39;;;;;;;7.15;1.77;;;;;;;3.10;67.52;96269.34;4805487;29;20042;-80
2022/02/20 00:12:06;;;;;;;4.25;1.50;;;;;;;3.09;66.83;96265.03;4836637;29;20146;-80
2022/02/20 00:14:33;;;;;;;4.78;1.67;;;;;;;3.10;67.61;96274.72;4837531;29;20065;-81
2022/02/20 00:16:59;;;;;;;8.52;1.88;;;;;;;3.17;66.95;96263.66;4820299;29;20057;-81
2022/02/20 00:19:26;;;;;;;7.82;1.48;;;;;;;3.20;67.43;96257.75;4820807;29;20054;-81
2022/02/20 00:21:54;;;;;;;8.95;1.40;;;;;;;3.23;66.33;96261.75;4837157;29;20057;-81
2022/02/20 00:24:21;;;;;;;5.38;1.52;;;;;;;3.29;66.10;96263.34;4836028;29;20065;-81
2022/02/20 00:26:47;;;;;;;7.20;1.55;;;;;;;3.39;65.66;96266.00;4836713;29;20056;-81
2022/02/20 00:29:14;;;;;;;6.63;1.80;;;;;;;3.47;65.43;96261.97;4840001;29;20281;-81
2022/02/20 00:31:41;;;;;;;6.72;1.30;;;;;;;3.52;64.37;96251.19;4823546;29;20050;-80
2022/02/20 00:34:07;;;;;;;4.50;1.10;;;;;;;3.61;64.99;96268.38;4838806;29;20054;-81
2022/02/20 00:36:34;;;;;;;3.60;1.27;;;;;;;3.67;64.62;96261.88;4839995;29;20049;-81
2022/02/20 00:39:02;;;;;;;7.47;1.80;;;;;;;3.73;64.62;96265.38;4824097;29;20272;-82
2022/02/20 00:41:29;;;;;;;6.45;1.30;;;;;;;3.74;64.41;96265.06;4841174;29;20056;-81
2022/02/20 00:43:55;;;;;;;4.82;1.40;;;;;;;3.76;64.76;96271.00;4824894;29;20046;-81
2022/02/20 00:46:22;;;;;;;6.10;1.35;;;;;;;3.79;64.68;96270.44;4840841;29;20683;-81
2022/02/20 00:48:48;;;;;;;8.00;1.70;;;;;;;3.79;65.15;96275.03;4823285;29;20479;-81
2022/02/20 00:51:15;;;;;;;7.55;1.58;;;;;;;3.84;64.11;96267.72;4839534;29;20317;-81
2022/02/20 00:53:41;;;;;;;4.97;1.50;;;;;;;3.84;64.34;96275.81;4838652;29;20060;-81
2022/02/20 00:56:09;;;;;;;5.72;1.30;;;;;;;3.93;64.26;96276.03;4838069;29;20062;-81
2022/02/20 00:58:35;;;;;;;10.10;1.92;;;;;;;3.95;64.39;96275.75;4838240;29;20059;-80
2022/02/20 01:01:04;;;;;;;7.68;1.25;;;;;;;3.87;65.24;96277.97;4837642;29;20053;-80
2022/02/20 01:03:30;;;;;;;3.25;1.00;;;;;;;3.87;65.48;96286.03;4837961;29;20050;-81
2022/02/20 01:05:57;;;;;;;6.03;1.48;;;;;;;3.86;65.06;96280.91;4838222;29;20054;-81
2022/02/20 01:08:23;;;;;;;4.22;1.35;;;;;;;3.88;64.95;96279.56;4839106;29;20050;-81
2022/02/20 01:10:50;;;;;;;5.65;1.52;;;;;;;3.87;64.83;96277.97;4838535;29;20057;-81
2022/02/20 01:13:18;;;;;;;8.77;1.70;;;;;;;3.85;65.51;96280.09;4838074;29;20556;-81
2022/02/20 01:15:44;;;;;;;10.20;1.77;;;;;;;3.86;64.91;96275.53;4838950;29;20540;-81
2022/02/20 01:18:11;;;;;;;6.60;1.40;;;;;;;3.84;65.77;96275.81;4838051;29;20061;-81
2022/02/20 01:20:38;;;;;;;6.20;1.38;;;;;;;3.76;64.79;96284.47;4837147;29;20064;-81
2022/02/20 01:23:05;;;;;;;6.20;1.42;;;;;;;3.77;65.03;96282.59;4837732;29;20050;-81
2022/02/20 01:25:31;;;;;;;4.38;1.40;;;;;;;3.81;64.67;96300.63;4837284;29;20153;-81
2022/02/20 01:27:58;;;;;;;4.03;1.20;;;;;;;3.82;64.09;96294.16;4836604;29;20064;-81
2022/02/20 01:30:26;;;;;;;4.20;1.30;;;;;;;3.84;64.11;96300.03;4836564;29;20069;-80
2022/02/20 01:32:52;;;;;;;5.03;1.35;;;;;;;3.90;63.05;96304.31;4837301;29;20069;-80
2022/02/20 01:35:19;;;;;;;4.25;1.40;;;;;;;3.88;63.92;96311.88;4837906;29;20631;-81
2022/02/20 01:37:45;;;;;;;4.60;1.20;;;;;;;3.90;63.43;96307.03;4836657;29;20257;-80
2022/02/20 01:40:13;;;;;;;5.68;1.48;;;;;;;3.87;63.87;96307.59;4836680;29;20060;-81
2022/02/20 01:42:39;;;;;;;7.03;1.45;;;;;;;3.86;62.97;96303.28;4820811;29;20053;-81
2022/02/20 01:45:12;;;;;;;4.10;1.15;;;;;;;3.80;64.02;96282.81;4837183;29;20253;-81
2022/02/20 01:47:40;;;;;;;4.35;1.50;;;;;;;3.78;64.50;96294.97;4837082;29;20049;-81
2022/02/20 01:50:08;;;;;;;5.68;1.45;;;;;;;3.75;64.82;96288.22;4836653;29;20061;-81
2022/02/20 01:52:34;;;;;;;7.53;1.30;;;;;;;3.78;64.54;96285.00;4837401;29;20135;-80
2022/02/20 01:55:06;;;;;;;5.55;1.33;;;;;;;3.78;64.12;96279.63;4836800;29;20058;-80
2022/02/20 01:57:33;;;;;;;6.03;1.50;;;;;;;3.73;63.52;96287.72;4836071;29;20061;-81
2022/02/20 02:00:00;;;;;;;6.93;1.75;;;;;;;3.79;62.96;96280.41;4836907;29;20053;-81
2022/02/20 02:02:27;;;;;;;3.95;1.30;;;;;;;3.75;63.76;96296.31;4836473;29;20057;-80
2022/02/20 02:04:54;;;;;;;4.93;1.20;;;;;;;3.74;62.10;96283.94;4837040;29;20057;-83
2022/02/20 02:07:21;;;;;;;4.65;1.20;;;;;;;3.76;62.53;96289.03;4836849;29;20284;-81
2022/02/20 02:09:47;;;;;;;6.18;1.20;;;;;;;3.72;62.32;96288.81;4836017;29;20748;-81
2022/02/20 02:12:14;;;;;;;6.53;1.38;;;;;;;3.73;61.59;96282.31;4835929;29;20045;-81
2022/02/20 02:14:54;;;;;;;5.13;1.05;;;;;;;3.75;60.84;96274.75;4836243;29;20057;-81
2022/02/20 02:17:21;;;;;;;3.25;0.82;;;;;;;3.78;61.68;96268.84;4835514;29;20057;-79
2022/02/20 02:19:48;;;;;;;4.60;1.00;;;;;;;3.80;60.46;96280.13;4836125;29;20177;-82
2022/02/20 02:22:18;;;;;;;3.53;1.10;;;;;;;3.81;59.89;96271.00;4835507;29;20062;-81
2022/02/20 02:24:44;;;;;;;4.07;1.13;;;;;;;3.82;59.16;96275.28;4835855;29;20094;-81
2022/02/20 02:27:13;;;;;;;4.72;1.25;;;;;;;3.85;58.44;96263.94;4835728;29;20061;-81
2022/02/20 02:29:39;;;;;;;2.95;0.80;;;;;;;3.82;58.22;96264.50;4834514;29;20084;-81
2022/02/20 02:32:07;;;;;;;2.80;0.93;;;;;;;3.83;59.02;96286.88;4834330;29;20057;-82
2022/02/20 02:34:34;;;;;;;4.63;1.17;;;;;;;3.77;59.11;96269.94;4834692;29;20520;-80
2022/02/20 02:37:00;;;;;;;1.48;1.05;;;;;;;3.78;59.79;96285.00;4835322;29;20053;-83
2022/02/20 02:39:28;;;;;;;3.63;0.70;;;;;;;3.76;61.14;96292.56;4835201;29;20050;-80
2022/02/20 02:41:55;;;;;;;4.38;1.42;;;;;;;3.66;62.01;96284.53;4834239;29;20299;-83
2022/02/20 02:44:21;;;;;;;2.08;0.73;;;;;;;3.65;62.26;96280.19;4834083;29;20054;-81
2022/02/20 02:46:48;;;;;;;1.63;0.88;;;;;;;3.70;62.79;96285.56;4834613;29;20060;-80
2022/02/20 02:49:14;;;;;;;4.60;0.93;;;;;;;3.62;63.66;96291.53;4834274;29;20070;-80
2022/02/20 02:51:41;;;;;;;3.45;0.98;;;;;;;3.58;63.97;96301.22;4834013;29;20261;-80
2022/02/20 02:54:08;;;;;;;3.45;0.93;;;;;;;3.59;64.62;96281.28;4835437;29;20049;-80
2022/02/20 02:56:36;;;;;;;1.92;0.60;;;;;;;3.44;66.44;96302.88;4834469;29;20057;-81
2022/02/20 02:59:05;;;;;;;2.95;0.70;;;;;;;3.41;67.51;96304.25;4833275;29;20057;-83
2022/02/20 03:01:31;;;;;;;3.47;0.95;;;;;;;3.30;68.69;96295.41;4834391;29;20058;-80
2022/02/20 03:03:58;;;;;;;0.57;0.40;;;;;;;3.26;69.26;96297.00;4833603;29;20054;-80
2022/02/20 03:06:25;;;;;;;2.33;1.00;;;;;;;3.22;68.87;96301.31;4833885;29;20054;-81
2022/02/20 03:08:52;;;;;;;3.95;1.20;;;;;;;3.29;68.96;96304.56;4839246;29;20061;-80
2022/02/20 03:11:19;;;;;;;3.70;0.90;;;;;;;3.30;69.18;96306.16;4840742;29;20050;-82
2022/02/20 03:13:47;;;;;;;4.32;0.95;;;;;;;3.37;70.03;96322.00;4837266;29;20061;-80
2022/02/20 03:16:13;;;;;;;2.97;0.88;;;;;;;3.29;71.19;96315.31;4843619;29;20054;-81
2022/02/20 03:18:40;;;;;;;5.60;0.93;;;;;;;3.04;72.29;96312.66;4835998;29;20050;-86
2022/02/20 03:21:08;;;;;;;2.28;0.68;;;;;;;2.93;74.11;96319.13;4833516;29;20050;-80
2022/02/20 03:23:35;;;;;;;3.53;1.08;;;;;;;2.97;74.82;96326.38;4833221;29;20050;-81
2022/02/20 03:26:03;;;;;;;4.50;2.25;;;;;;;3.01;75.21;96332.03;4837649;29;20046;-80
2022/02/20 03:28:30;;;;;;;4.28;0.90;;;;;;;2.85;77.54;96323.16;4834510;29;20058;-84
2022/02/20 03:30:58;;;;;;;3.33;1.02;;;;;;;2.62;78.72;96321.81;4833397;29;20054;-83
2022/02/20 03:33:25;;;;;;;3.63;0.93;;;;;;;2.69;79.57;96316.97;4833033;29;20053;-81
2022/02/20 03:35:53;;;;;;;0.95;0.70;;;;;;;2.60;79.65;96329.31;4834104;29;20093;-84
2022/02/20 03:38:19;;;;;;;3.10;0.80;;;;;;;2.43;80.90;96315.34;4833931;29;20053;-85
2022/02/20 03:40:46;;;;;;;1.30;0.80;;;;;;;2.42;81.94;96313.72;4832826;29;20062;-82
2022/02/20 03:43:13;;;;;;;3.90;0.98;;;;;;;2.37;82.01;96329.84;4833150;29;20050;-82
2022/02/20 03:45:39;;;;;;;3.90;1.05;;;;;;;2.42;81.25;96333.34;4833103;29;20046;-81
2022/02/20 03:48:07;;;;;;;2.67;0.90;;;;;;;2.34;81.27;96331.97;4833179;29;20054;-81
2022/02/20 03:50:34;;;;;;;3.17;1.27;;;;;;;2.43;80.63;96323.41;4833404;29;20062;-81
2022/02/20 03:53:01;;;;;;;1.70;1.02;;;;;;;2.35;81.07;96325.53;4833394;29;20124;-80
2022/02/20 03:55:27;;;;;;;2.65;0.77;;;;;;;2.44;79.90;96327.69;4833134;29;20193;-82
2022/02/20 03:57:54;;;;;;;3.63;1.00;;;;;;;2.47;79.66;96317.22;4832795;29;20065;-82
2022/02/20 04:00:22;;;;;;;1.70;0.98;;;;;;;2.52;79.01;96313.75;4833080;29;20209;-81
2022/02/20 04:02:48;;;;;;;4.25;0.77;;;;;;;2.57;78.65;96322.63;4835665;29;20054;-80
2022/02/20 04:05:18;;;;;;;4.15;0.88;;;;;;;2.57;78.11;96319.13;4837640;29;20061;-81
2022/02/20 04:07:44;;;;;;;6.63;1.65;;;;;;;2.59;77.66;96316.97;4836948;29;20064;-81
2022/02/20 04:10:12;;;;;;;2.00;0.70;;;;;;;2.64;77.83;96330.41;4836639;29;20061;-82
2022/02/20 04:12:39;;;;;;;2.13;0.73;;;;;;;2.64;76.63;96322.34;4837627;29;20069;-81
2022/02/20 04:15:07;;;;;;;3.22;0.80;;;;;;;2.66;76.16;96333.63;4837780;29;20058;-81
2022/02/20 04:17:39;;;;;;;3.05;0.95;;;;;;;2.74;75.55;96330.41;4837741;29;20050;-80
2022/02/20 04:20:06;;;;;;;2.58;1.00;;;;;;;2.80;76.25;96340.09;4837576;29;20058;-80
2022/02/20 04:22:34;;;;;;;4.03;0.60;;;;;;;2.79;74.75;96322.34;4837690;29;20065;-80
2022/02/20 04:25:01;;;;;;;1.92;0.77;;;;;;;2.87;73.85;96339.81;4836506;29;20077;-84
2022/02/20 04:27:27;;;;;;;3.20;0.80;;;;;;;2.87;73.82;96329.88;4837876;29;20131;-81
2022/02/20 04:29:54;;;;;;;2.47;0.60;;;;;;;2.93;73.08;96327.19;4837097;29;20549;-81
2022/02/20 04:32:20;;;;;;;1.23;0.50;;;;;;;2.98;73.00;96319.13;4837402;29;20054;-80
2022/02/20 04:34:47;;;;;;;3.58;1.27;;;;;;;3.03;72.48;96306.47;4837433;29;20057;-81
2022/02/20 04:37:13;;;;;;;4.53;0.90;;;;;;;3.05;71.55;96296.25;4837093;29;20407;-81
2022/02/20 04:39:41;;;;;;;2.47;0.75;;;;;;;3.06;70.88;96299.72;4837037;29;20080;-81
2022/02/20 04:42:08;;;;;;;4.53;0.85;;;;;;;3.11;70.56;96297.03;4836599;29;20053;-81
2022/02/20 04:44:35;;;;;;;1.67;1.00;;;;;;;3.13;69.75;96294.88;4835968;29;20054;-80
2022/02/20 04:47:01;;;;;;;3.20;0.80;;;;;;;3.14;69.97;96296.50;4836658;29;20061;-81
2022/02/20 04:49:28;;;;;;;4.78;1.10;;;;;;;3.19;68.92;96293.81;4836765;29;20676;-80
2022/02/20 04:51:54;;;;;;;5.70;0.90;;;;;;;3.28;67.95;96297.53;4837583;29;20623;-81
2022/02/20 04:54:21;;;;;;;3.30;0.80;;;;;;;3.32;67.12;96293.22;4837143;29;20726;-80
2022/02/20 04:56:49;;;;;;;1.33;0.52;;;;;;;3.36;66.74;96304.25;4837016;29;20050;-80
2022/02/20 04:59:15;;;;;;;1.27;0.43;;;;;;;3.43;66.97;96288.63;4838216;29;20053;-81
2022/02/20 05:01:42;;;;;;;2.20;0.70;;;;;;;3.42;65.48;96294.28;4837220;29;20580;-80
2022/02/20 05:04:09;;;;;;;2.08;0.65;;;;;;;3.45;65.22;96296.44;4837147;29;20057;-80
2022/02/20 05:06:36;;;;;;;3.35;0.80;;;;;;;3.47;65.35;96302.34;4821069;29;20230;-80
2022/02/20 05:09:03;;;;;;;3.05;0.60;;;;;;;3.44;65.51;96297.50;4835938;29;20061;-80
2022/02/20 05:11:30;;;;;;;3.78;1.02;;;;;;;3.47;64.58;96295.06;4836303;29;20050;-82
2022/02/20 05:13:59;;;;;;;2.75;0.85;;;;;;;3.45;64.85;96291.84;4834821;29;20046;-80
2022/02/20 05:16:27;;;;;;;1.63;0.98;;;;;;;3.47;64.79;96291.56;4836512;29;20476;-81
2022/02/20 05:18:54;;;;;;;4.78;0.90;;;;;;;3.52;63.57;96302.34;4836227;29;20050;-81
2022/02/20 05:21:21;;;;;;;4.45;0.90;;;;;;;3.57;63.19;96294.25;4836711;29;20050;-81
2022/02/20 05:23:48;;;;;;;1.05;0.52;;;;;;;3.60;63.40;96309.81;4837309;29;20061;-81
2022/02/20 05:26:15;;;;;;;2.92;0.70;;;;;;;3.63;63.07;96306.59;4836967;29;20054;-81
2022/02/20 05:28:42;;;;;;;6.95;1.13;;;;;;;3.67;62.99;96310.34;4836542;29;20141;-80
2022/02/20 05:31:10;;;;;;;2.13;0.68;;;;;;;3.70;62.53;96309.00;4836968;29;20054;-80
2022/02/20 05:33:36;;;;;;;0.90;0.55;;;;;;;3.73;61.82;96308.44;4836128;29;20058;-82
2022/02/20 05:36:03;;;;;;;2.50;0.70;;;;;;;3.73;61.67;96324.63;4836118;29;20387;-80
2022/02/20 05:38:30;;;;;;;1.75;0.80;;;;;;;3.75;61.81;96327.81;4835731;29;20681;-81
2022/02/20 05:40:56;;;;;;;4.45;0.95;;;;;;;3.82;61.68;96328.34;4836372;29;20061;-82
2022/02/20 05:43:23;;;;;;;3.15;0.60;;;;;;;3.86;61.86;96324.00;4837162;29;20050;-80
2022/02/20 05:45:49;;;;;;;2.58;0.70;;;;;;;3.88;60.74;96321.88;4838415;29;20045;-80
2022/02/20 05:48:17;;;;;;;2.13;0.80;;;;;;;3.92;60.81;96333.72;4835620;29;20053;-80
2022/02/20 05:50:44;;;;;;;1.98;0.70;;;;;;;3.97;61.03;96338.25;4835175;29;20077;-80
2022/02/20 05:53:10;;;;;;;0.75;0.50;;;;;;;3.97;60.42;96340.94;4836609;29;20057;-81
2022/02/20 05:55:37;;;;;;;3.38;0.75;;;;;;;4.04;60.92;96336.06;4837105;29;20058;-80
2022/02/20 05:58:04;;;;;;;5.95;0.95;;;;;;;4.05;61.47;96343.06;4837761;29;20491;-81
2022/02/20 06:00:30;;;;;;;3.58;0.80;;;;;;;4.08;61.00;96342.53;4838523;29;20054;-81
2022/02/20 06:02:57;;;;;;;1.83;0.70;;;;;;;4.08;60.41;96343.34;4836584;29;20057;-80
2022/02/20 06:05:25;;;;;;;1.67;0.57;;;;;;;4.09;60.34;96349.53;4836177;29;20549;-81
2022/02/20 06:07:51;;;;;;;1.92;0.50;;;;;;;4.10;61.10;96361.91;4836590;29;20266;-80
2022/02/20 06:10:18;;;;;;;1.50;0.68;;;;;;;4.10;61.45;96357.31;4835510;29;20054;-80
2022/02/20 06:12:44;;;;;;;2.15;0.73;;;;;;;4.13;61.93;96361.38;4835714;29;20058;-80
2022/02/20 06:15:12;;;;;;;3.25;0.70;;;;;;;4.15;61.89;96353.81;4837142;29;20069;-80
2022/02/20 06:17:38;;;;;;;3.17;0.77;;;;;;;4.15;62.27;96369.97;4836610;29;20073;-80
2022/02/20 06:20:06;;;;;;;3.28;0.73;;;;;;;4.09;62.27;96371.88;4837458;29;20707;-84
2022/02/20 06:22:34;;;;;;;2.67;0.80;;;;;;;4.14;61.98;96368.38;4837018;29;20165;-80
2022/02/20 06:25:00;;;;;;;2.17;0.75;;;;;;;4.13;62.70;96367.56;4835015;29;20056;-80
2022/02/20 06:27:27;;;;;;;6.70;1.27;;;;;;;4.17;63.14;96355.13;4835308;29;20046;-80
2022/02/20 06:29:53;;;;;;;1.23;0.80;;;;;;;4.19;62.33;96361.06;4836178;29;20050;-81
2022/02/20 06:32:20;;;;;;;1.90;0.82;;;;;;;4.21;62.94;96358.06;4837166;29;20057;-80
2022/02/20 06:34:46;;;;;;;1.83;0.80;;;;;;;4.21;62.56;96360.78;4836753;29;20068;-81
2022/02/20 06:37:13;;;;;;;1.48;0.70;;;;;;;4.19;62.81;96357.56;4835437;29;20066;-80
2022/02/20 06:39:44;;;;;;;2.03;0.63;;;;;;;4.19;63.21;96365.66;4836244;29;20062;-81
2022/02/20 06:42:11;;;;;;;3.47;0.90;;;;;;;4.21;63.01;96347.31;4835861;29;20241;-80
2022/02/20 06:44:38;;;;;;;4.13;0.70;;;;;;;4.19;63.17;96360.25;4835461;29;20608;-80
2022/02/20 06:47:05;;;;;;;3.13;0.80;;;;;;;4.27;63.01;96366.94;4838177;29;20053;-80
2022/02/20 06:49:31;;;;;;;4.00;0.80;;;;;;;4.30;62.96;96371.78;4835919;29;20054;-80
2022/02/20 06:51:58;;;;;;;2.35;0.65;;;;;;;4.32;62.63;96373.13;4834953;29;20109;-80
2022/02/20 06:54:27;;;;;;;2.70;0.90;;;;;;;4.30;63.02;96372.59;4836083;29;20457;-81
2022/02/20 06:56:55;;;;;;;3.55;0.65;;;;;;;4.32;63.78;96380.41;4834876;29;20054;-80
2022/02/20 06:59:22;;;;;;;1.95;0.55;;;;;;;4.30;63.97;96379.88;4834860;29;20050;-80
2022/02/20 07:01:48;;;;;;;6.03;1.00;;;;;;;4.34;63.52;96389.84;4834432;29;20058;-81
2022/02/20 07:04:15;;;;;;;1.48;0.68;;;;;;;4.38;63.70;96400.84;4835929;29;20505;-81
2022/02/20 07:06:43;;;;;;;4.53;0.65;;;;;;;4.41;63.84;96390.34;4834755;29;20105;-80
2022/02/20 07:09:09;;;;;;;1.83;0.70;;;;;;;4.44;63.65;96399.78;4834959;29;20046;-80
2022/02/20 07:11:37;;;;;;;2.67;0.60;;;;;;;4.44;63.59;96389.78;4834484;29;20045;-80
2022/02/20 07:14:05;;;;;;;1.95;0.68;;;;;;;4.42;64.14;96396.53;4820419;29;20686;-81
2022/02/20 07:16:34;;;;;;;0.90;0.45;;;;;;;4.43;64.21;96407.03;4837125;29;20072;-81
2022/02/20 07:19:01;;;;;;;3.60;0.52;;;;;;;4.41;63.90;96411.91;4835450;29;20463;-81
2022/02/20 07:21:30;;;;;;;2.10;0.73;;;;;;;4.44;64.46;96405.97;4836424;29;20061;-81
2022/02/20 07:23:58;;;;;;;2.78;0.70;;;;;;;4.45;64.34;96402.19;4836579;29;20058;-81
2022/02/20 07:26:28;;;;;;;2.38;0.60;;;;;;;4.48;63.71;96402.69;4837848;29;20127;-81
2022/02/20 07:28:54;;;;;;;5.88;1.02;;;;;;;4.53;63.79;96397.28;4837805;29;20054;-81
2022/02/20 07:31:23;;;;;;;2.25;0.50;;;;;;;4.54;63.80;96415.06;4836716;29;20054;-82
2022/02/20 07:33:54;;;;;;;4.88;1.13;;;;;;;4.54;63.84;96410.50;4837304;29;20057;-82
2022/02/20 07:36:21;;;;;;;2.08;0.90;;;;;;;4.60;63.96;96409.38;4836493;29;20084;-81
2022/02/20 07:38:47;;;;;;;1.00;0.45;;;;;;;4.61;63.87;96415.59;4837287;29;20057;-80
2022/02/20 07:41:14;;;;;;;1.58;0.80;;;;;;;4.62;63.71;96406.41;4837615;29;20042;-80
2022/02/20 07:43:44;;;;;;;2.10;0.60;;;;;;;4.70;63.82;96401.25;4836443;29;20440;-82
2022/02/20 07:46:11;;;;;;;2.55;0.65;;;;;;;4.78;63.28;96410.63;4837453;29;20634;-82
2022/02/20 07:48:40;;;;;;;4.75;0.85;;;;;;;4.84;64.61;96403.31;4836968;29;20087;-81
2022/02/20 07:51:07;;;;;;;5.38;0.98;;;;;;;4.91;64.25;96412.72;4836547;29;20067;-81
2022/02/20 07:53:33;;;;;;;4.97;0.95;;;;;;;5.06;63.48;96406.38;4836783;29;20061;-81
2022/02/20 07:56:00;;;;;;;4.07;1.00;;;;;;;5.14;63.61;96413.06;4837636;29;20060;-81
2022/02/20 07:58:27;;;;;;;1.60;0.60;;;;;;;5.16;63.42;96417.09;4839424;29;20069;-82
2022/02/20 08:00:54;;;;;;;2.20;0.60;;;;;;;5.24;63.50;96418.41;4839032;29;20096;-82
2022/02/20 08:03:21;;;;;;;0.65;0.40;;;;;;;5.26;62.45;96410.81;4838520;29;20054;-82
2022/02/20 08:05:49;;;;;;;3.42;0.60;;;;;;;5.33;63.61;96426.72;4839073;29;20065;-82
2022/02/20 08:08:16;;;;;;;3.38;0.60;;;;;;;5.34;62.83;96428.31;4838660;29;20062;-81
2022/02/20 08:10:44;;;;;;;4.10;0.93;;;;;;;5.42;62.16;96420.41;4838490;29;20057;-81
2022/02/20 08:13:11;;;;;;;3.58;1.20;;;;;;;5.41;62.00;96428.78;4838902;29;20112;-81
2022/02/20 08:15:38;;;;;;;1.73;0.60;;;;;;;5.37;61.77;96438.53;4840050;29;20069;-81
2022/02/20 08:18:04;;;;;;;3.85;0.63;;;;;;;5.38;62.29;96423.97;4838549;29;20195;-82
2022/02/20 08:20:31;;;;;;;1.45;0.70;;;;;;;5.42;62.48;96442.00;4837969;29;20057;-82
2022/02/20 08:22:59;;;;;;;4.95;0.93;;;;;;;5.51;62.25;96450.31;4838511;29;20060;-81
2022/02/20 08:25:26;;;;;;;2.10;0.68;;;;;;;5.58;62.24;96453.47;4838481;29;20062;-80
2022/02/20 08:27:55;;;;;;;2.70;0.73;;;;;;;5.69;63.31;96451.50;4841543;29;20059;-80
2022/02/20 08:30:22;;;;;;;2.92;0.50;;;;;;;5.79;61.21;96456.81;4840897;29;20058;-82
2022/02/20 08:32:49;;;;;;;3.13;0.90;;;;;;;5.89;61.48;96459.41;4843308;29;20072;-81
2022/02/20 08:35:15;;;;;;;2.45;0.50;;;;;;;5.97;61.05;96442.63;4847538;29;20060;-82
2022/02/20 08:37:46;;;;;;;2.25;0.80;;;;;;;5.95;61.13;96434.00;4836608;29;20132;-81
2022/02/20 08:40:17;;;;;;;1.00;0.52;;;;;;;5.98;59.91;96436.13;4842500;29;20117;-81
2022/02/20 08:42:44;;;;;;;2.70;0.60;;;;;;;5.97;60.62;96447.22;4841409;29;20046;-81
2022/02/20 08:45:12;;;;;;;1.98;0.55;;;;;;;5.90;61.57;96455.66;4837426;29;20068;-81
2022/02/20 08:47:40;;;;;;;2.50;0.60;;;;;;;5.92;61.92;96461.59;4825734;29;20082;-81
2022/02/20 08:50:10;;;;;;;3.00;0.77;;;;;;;5.93;61.08;96446.19;4844995;29;20061;-81
2022/02/20 08:52:37;;;;;;;2.40;0.77;;;;;;;6.02;61.97;96455.28;4842927;29;20042;-82
2022/02/20 08:55:05;;;;;;;2.13;0.70;;;;;;;5.99;60.48;96445.84;4844337;29;20139;-80
2022/02/20 08:57:34;;;;;;;2.00;0.75;;;;;;;6.05;60.87;96438.47;4843587;29;20494;-82
2022/02/20 09:00:01;;;;;;;1.85;0.80;;;;;;;6.30;60.39;96429.28;4856153;29;20051;-81
2022/02/20 09:02:28;;;;;;;1.67;0.50;;;;;;;6.51;59.84;96443.38;4835209;29;20089;-81
2022/02/20 09:04:55;;;;;;;1.83;0.60;;;;;;;6.66;60.50;96434.25;4843210;29;20049;-81
2022/02/20 09:07:22;;;;;;;3.28;0.95;;;;;;;6.88;60.13;96445.31;4843121;29;20053;-81
2022/02/20 09:09:49;;;;;;;3.08;0.70;;;;;;;6.77;60.41;96443.84;4844375;29;20057;-81
2022/02/20 09:12:16;;;;;;;4.93;0.93;;;;;;;6.68;59.58;96432.03;4827386;29;20050;-82
2022/02/20 09:14:44;;;;;;;3.22;0.63;;;;;;;6.71;61.63;96440.41;4843916;29;20053;-81
2022/02/20 09:17:11;;;;;;;2.03;0.60;;;;;;;6.73;62.24;96434.69;4843016;29;20521;-82
2022/02/20 09:19:38;;;;;;;0.80;0.50;;;;;;;6.52;61.27;96437.69;4828116;29;20046;-80
2022/02/20 09:22:07;;;;;;;3.13;0.80;;;;;;;6.56;61.94;96420.84;4826806;29;20053;-81
2022/02/20 09:24:34;;;;;;;3.30;1.00;;;;;;;6.56;62.44;96437.09;4843031;29;20137;-82
2022/02/20 09:27:00;;;;;;;1.70;0.55;;;;;;;6.51;61.58;96425.22;4843615;29;20524;-81
2022/02/20 09:29:33;;;;;;;0.93;0.50;;;;;;;6.40;62.62;96436.47;4833393;29;20053;-81
2022/02/20 09:32:02;;;;;;;2.60;0.88;;;;;;;6.38;62.02;96425.94;4844595;29;20141;-81
2022/02/20 09:34:29;;;;;;;2.33;0.60;;;;;;;6.39;61.50;96411.31;4860442;29;20101;-82
2022/02/20 09:36:56;;;;;;;3.95;1.10;;;;;;;6.48;61.10;96425.03;4861203;29;20137;-81
2022/02/20 09:39:25;;;;;;;3.28;0.43;;;;;;;6.49;61.98;96415.81;4850696;29;20046;-81
2022/02/20 09:41:52;;;;;;;1.70;0.82;;;;;;;6.52;61.98;96417.91;4859998;29;20105;-81
2022/02/20 09:44:19;;;;;;;2.88;0.68;;;;;;;6.63;60.41;96416.72;4860408;29;20065;-80
2022/02/20 09:46:46;;;;;;;2.53;0.70;;;;;;;6.65;60.87;96419.13;4860058;29;20057;-80
2022/02/20 09:49:14;;;;;;;4.20;0.63;;;;;;;6.72;60.88;96414.13;4860658;29;20056;-81
2022/02/20 09:51:41;;;;;;;1.73;0.70;;;;;;;6.72;60.99;96419.56;4860009;29;20054;-81
2022/02/20 09:54:08;;;;;;;2.08;0.60;;;;;;;6.76;60.60;96417.88;4860061;29;20065;-82
2022/02/20 09:56:34;;;;;;;2.53;0.70;;;;;;;6.75;60.21;96419.78;4860962;29;20055;-81
2022/02/20 09:59:01;;;;;;;3.13;0.55;;;;;;;6.77;59.28;96411.38;4861400;29;20053;-82
2022/02/20 10:01:29;;;;;;;2.20;0.50;;;;;;;6.79;59.74;96409.19;4859935;29;20057;-80
2022/02/20 10:03:56;;;;;;;3.10;0.70;;;;;;;6.77;59.72;96411.38;4861346;29;20050;-81
2022/02/20 10:06:26;;;;;;;2.28;0.57;;;;;;;6.90;60.44;96416.06;4851552;29;20044;-82
2022/02/20 10:08:55;;;;;;;1.08;0.60;;;;;;;7.04;60.92;96414.22;4859939;29;20045;-81
2022/02/20 10:11:23;;;;;;;1.85;0.57;;;;;;;7.12;60.58;96411.94;4851617;29;20072;-81
2022/02/20 10:13:52;;;;;;;3.22;0.80;;;;;;;7.12;60.18;96401.13;4859498;29;20060;-81
2022/02/20 10:16:24;;;;;;;2.80;0.70;;;;;;;7.24;60.25;96394.13;4859022;29;20053;-81
2022/02/20 10:18:53;;;;;;;3.53;0.90;;;;;;;7.34;59.80;96390.47;4862252;29;20053;-80
2022/02/20 10:21:21;;;;;;;2.95;1.08;;;;;;;7.40;59.04;96386.56;4862430;29;20171;-81
2022/02/20 10:23:50;;;;;;;1.77;0.60;;;;;;;7.51;57.26;96392.63;4861525;29;20523;-82
2022/02/20 10:26:21;;;;;;;4.35;1.13;;;;;;;7.65;58.92;96382.63;4849386;29;20049;-81
2022/02/20 10:29:03;;;;;;;1.90;0.68;;;;;;;7.85;58.19;96382.25;4860102;29;20061;-81
2022/02/20 10:31:46;;;;;;;2.15;0.93;;;;;;;8.18;58.71;96376.75;4859112;29;20053;-81
2022/02/20 10:34:15;;;;;;;1.42;0.45;;;;;;;8.21;56.45;96369.94;4850169;29;20052;-81
2022/02/20 10:36:53;;;;;;;0.85;0.50;;;;;;;8.02;57.71;96381.66;4859213;29;20053;-81
2022/02/20 10:39:40;;;;;;;4.07;1.08;;;;;;;8.27;55.65;96361.38;4849373;29;20548;-82
2022/02/20 10:42:13;;;;;;;2.70;0.70;;;;;;;8.41;55.88;96358.69;4856674;29;20458;-82
2022/02/20 10:44:49;;;;;;;2.50;0.60;;;;;;;8.40;55.78;96364.41;4859335;29;20073;-81
2022/02/20 10:47:16;;;;;;;2.90;0.80;;;;;;;8.38;55.92;96355.75;4859146;29;20053;-81
2022/02/20 10:49:44;;;;;;;1.95;0.50;;;;;;;8.30;55.84;96351.81;4859804;29;20408;-81
2022/02/20 10:52:21;;;;;;;1.23;0.47;;;;;;;8.65;54.15;96344.84;4859617;29;20136;-81
2022/02/20 10:55:08;;;;;;;4.18;0.60;;;;;;;8.88;54.33;96338.34;4859567;29;20049;-82
2022/02/20 10:57:36;;;;;;;2.45;0.73;;;;;;;8.89;54.45;96333.72;4859458;29;20050;-81
2022/02/20 11:00:10;;;;;;;3.00;0.60;;;;;;;9.06;54.97;96316.75;4859419;29;20502;-81
2022/02/20 11:02:37;;;;;;;2.67;0.90;;;;;;;9.10;53.33;96321.25;4842010;29;20121;-81
2022/02/20 11:05:04;;;;;;;4.20;0.82;;;;;;;9.09;54.69;96306.09;4842113;29;20093;-81
2022/02/20 11:07:31;;;;;;;1.05;0.60;;;;;;;9.00;54.80;96307.94;4858948;29;20049;-81
2022/02/20 11:09:57;;;;;;;1.90;0.73;;;;;;;8.95;54.14;96299.91;4841868;29;20053;-81
2022/02/20 11:12:25;;;;;;;2.50;0.45;;;;;;;8.95;54.25;96305.34;4842517;29;20485;-82
2022/02/20 11:14:54;;;;;;;1.55;0.63;;;;;;;8.74;54.79;96312.34;4859483;29;20046;-81
2022/02/20 11:17:22;;;;;;;2.53;0.40;;;;;;;8.59;54.89;96313.50;4858960;29;20053;-81
2022/02/20 11:19:52;;;;;;;3.10;0.65;;;;;;;8.67;56.07;96312.00;4857884;29;20053;-80
2022/02/20 11:22:21;;;;;;;2.17;0.60;;;;;;;8.96;54.11;96303.41;4857903;29;20060;-81
2022/02/20 11:24:51;;;;;;;2.80;0.70;;;;;;;9.00;55.86;96310.66;4858480;29;20057;-81
2022/02/20 11:27:20;;;;;;;2.10;0.50;;;;;;;8.94;56.01;96309.16;4858521;29;20049;-81
2022/02/20 11:29:48;;;;;;;4.07;0.60;;;;;;;8.87;55.05;96308.78;4858567;29;20517;-81
2022/02/20 11:32:16;;;;;;;1.35;0.50;;;;;;;8.93;55.34;96310.28;4845840;29;20052;-81
2022/02/20 11:34:45;;;;;;;1.45;0.40;;;;;;;9.03;55.16;96301.88;4840768;29;20050;-81
2022/02/20 11:37:12;;;;;;;1.75;0.55;;;;;;;9.17;54.12;96311.88;4839967;29;20138;-81
2022/02/20 11:39:59;;;;;;;2.38;0.70;;;;;;;9.45;53.83;96307.91;4841851;29;20058;-81
2022/02/20 11:42:27;;;;;;;1.88;0.70;;;;;;;9.68;53.52;96301.28;4841459;29;20058;-81
2022/02/20 11:44:56;;;;;;;1.75;0.50;;;;;;;10.00;53.83;96295.81;4840958;29;20525;-80